Terminal Aerodrome Forecast
Issued by NWS Memphis, TN

Home | Current Version | Previous Version | Text Only | Print | Product List | Glossary On
Versions: 1 2 3 4 5 6 7 8 9 10 11 12 13 14 15 16
394
FTUS44 KMEG 241130
TAFMKL
TAF
KMKL 241130Z 2412/2512 18011KT P6SM SKC WS020/20055KT
     FM241400 21015G21KT P6SM SCT035 SCT250
     FM242200 24011G19KT P6SM VCTS BKN040CB OVC120
      TEMPO 2423/2503 6SM -SHRA BKN030
     FM250300 28013KT P6SM SCT035
     FM250600 29012KT P6SM BKN250=

USA.gov is the U.S. government's official web portal to all federal, state and local government web resources and services.